PKWA/KWA METAR and TAF weather

Enter ICAO airport designator
Station Type Date Time Source
PKWA METAR 2021/05/15 23:40 UTC NOAA

PKWA 152340Z AUTO 11024G28KT 7SM -RA SCT017 SCT032 OVC090 26/24 A2990 RMK AO2 T02620241


Station Type Date Time Source
PKWA Decoded METAR 2021/05/15 23:40 UTC NOAA

Kwajalein, Bucholz AAF, Kwajalein KMR ATOL Airport, Marshall Islands (PKWA) 08-43N 167-44E 2M
May 15, 2021 - 07:40 PM EDT / 2021.05.15 2340 UTC
Wind: from the ESE (110 degrees) at 28 MPH (24 KT) gusting to 32 MPH (28 KT):0
Visibility: 7 mile(s):0
Sky conditions: overcast
Weather: light rain
Temperature: 79.2 F (26.2 C)
Dew Point: 75.4 F (24.1 C)
Relative Humidity: 88%
Pressure (altimeter): 29.9 in. Hg (1012 hPa)
ob: PKWA 152340Z AUTO 11024G28KT 7SM -RA SCT017 SCT032 OVC090 26/24 A2990 RMK AO2 T02620241
cycle: 23

Station Type Date Time Source
PKWA TAF 2021/05/15 20:57 UTC NOAA

TAF PKWA 151948Z 1520/1618 08015G25KT P6SM VCSH SCT016 SCT040 BKN120
TEMPO 1520/1524 4SM SHRA SCT014 BKN020

Example: see airport list